createdAt,value
2023-03-18T00:01:01.546Z,2.97
2023-03-18T00:03:28.684Z,2.58
2023-03-18T00:06:10.273Z,2.65
2023-03-18T00:08:39.449Z,2.53
2023-03-18T00:11:07.883Z,2.30
2023-03-18T00:13:35.058Z,2.53
2023-03-18T00:16:02.759Z,2.42
2023-03-18T00:18:31.581Z,2.40
2023-03-18T00:21:01.086Z,2.55
2023-03-18T00:23:28.500Z,2.95
2023-03-18T00:25:57.205Z,2.78
2023-03-18T00:28:24.683Z,2.95
2023-03-18T00:30:51.779Z,3.10
2023-03-18T00:33:19.029Z,3.38
2023-03-18T00:35:47.531Z,3.30
2023-03-18T00:38:21.174Z,3.42
2023-03-18T00:41:01.383Z,3.72
2023-03-18T00:43:33.597Z,2.90
2023-03-18T00:46:00.925Z,3.17
2023-03-18T00:48:28.034Z,2.95
2023-03-18T00:50:54.804Z,3.30
2023-03-18T00:53:23.615Z,2.80
2023-03-18T00:55:50.590Z,3.33
2023-03-18T00:58:17.340Z,2.90
2023-03-18T01:00:44.282Z,2.75
2023-03-18T01:03:12.155Z,2.72
2023-03-18T01:05:39.652Z,2.75
2023-03-18T01:08:06.773Z,3.13
2023-03-18T01:10:34.398Z,2.83
2023-03-18T01:13:01.409Z,2.90
2023-03-18T01:15:29.613Z,3.05
2023-03-18T01:17:57.040Z,3.50
2023-03-18T01:20:24.890Z,3.60
2023-03-18T01:22:51.600Z,3.60
2023-03-18T01:25:18.757Z,3.50
2023-03-18T01:27:45.482Z,3.17
2023-03-18T01:30:13.498Z,3.40
2023-03-18T01:32:41.283Z,3.15
2023-03-18T01:35:08.588Z,3.50
2023-03-18T01:37:35.536Z,3.35
2023-03-18T01:40:02.476Z,3.50
2023-03-18T01:42:29.307Z,2.92
2023-03-18T01:45:29.926Z,3.28
2023-03-18T01:47:58.510Z,3.20
2023-03-18T01:50:34.433Z,3.28
2023-03-18T01:53:09.756Z,3.50
2023-03-18T01:55:38.419Z,3.70
2023-03-18T01:58:13.454Z,3.50
2023-03-18T02:00:46.900Z,3.42
2023-03-18T02:03:14.062Z,3.55
2023-03-18T02:05:43.383Z,3.80
2023-03-18T02:08:10.145Z,4.13
2023-03-18T02:10:38.219Z,3.67
2023-03-18T02:13:08.484Z,3.58
2023-03-18T02:15:40.147Z,4.13
2023-03-18T02:18:29.858Z,4.03
2023-03-18T02:21:15.819Z,3.53
2023-03-18T02:24:24.671Z,3.60
2023-03-18T02:27:02.489Z,3.80
2023-03-18T02:29:33.195Z,4.03
2023-03-18T02:32:02.896Z,3.88
2023-03-18T02:34:30.936Z,3.55
2023-03-18T02:36:57.977Z,3.88
2023-03-18T02:39:24.915Z,3.80
2023-03-18T02:41:52.597Z,3.90
2023-03-18T02:44:20.859Z,3.60
2023-03-18T02:46:47.665Z,4.05
2023-03-18T02:49:15.477Z,4.03
2023-03-18T02:51:42.316Z,4.40
2023-03-18T02:54:12.543Z,3.80
2023-03-18T02:56:41.187Z,4.15
2023-03-18T02:59:08.418Z,4.25
2023-03-18T03:01:37.297Z,4.32
2023-03-18T03:04:05.255Z,3.70
2023-03-18T03:06:32.079Z,4.13
2023-03-18T03:09:00.573Z,4.53
2023-03-18T03:11:27.705Z,4.13
2023-03-18T03:13:54.595Z,4.50
2023-03-18T03:16:21.624Z,4.10
2023-03-18T03:18:48.349Z,4.28
2023-03-18T03:21:15.336Z,3.83
2023-03-18T03:23:46.149Z,4.15
2023-03-18T03:26:13.584Z,4.43
2023-03-18T03:28:40.513Z,4.28
2023-03-18T03:31:07.361Z,4.43
2023-03-18T03:33:34.501Z,4.25
2023-03-18T03:36:01.214Z,4.60
2023-03-18T03:38:28.468Z,4.38
2023-03-18T03:40:55.425Z,4.63
2023-03-18T03:43:22.651Z,4.75
2023-03-18T03:45:49.657Z,4.78
2023-03-18T03:48:16.807Z,4.95
2023-03-18T03:50:43.473Z,4.53
2023-03-18T03:53:10.682Z,5.03
2023-03-18T03:55:37.859Z,4.75
2023-03-18T03:58:19.502Z,4.68
2023-03-18T04:01:01.169Z,4.93
2023-03-18T04:03:42.919Z,4.47
2023-03-18T04:06:24.598Z,4.15
2023-03-18T04:09:06.229Z,4.70
2023-03-18T04:11:48.500Z,4.68
2023-03-18T04:14:30.360Z,4.18
2023-03-18T04:17:12.046Z,5.15
2023-03-18T04:19:53.616Z,4.88
2023-03-18T04:22:36.224Z,4.90
2023-03-18T04:25:17.937Z,5.20
2023-03-18T04:27:59.693Z,5.10
2023-03-18T04:30:41.292Z,5.38
2023-03-18T04:33:22.975Z,5.50
2023-03-18T04:36:04.961Z,5.13
2023-03-18T04:38:46.778Z,5.60
2023-03-18T04:41:28.437Z,6.22
2023-03-18T04:44:10.123Z,5.40
2023-03-18T04:46:53.778Z,5.53
2023-03-18T04:49:35.661Z,5.68
2023-03-18T04:52:17.378Z,5.63
2023-03-18T04:54:59.029Z,6.03
2023-03-18T04:57:42.575Z,5.75
2023-03-18T05:00:24.396Z,5.45
2023-03-18T05:03:07.393Z,6.28
2023-03-18T05:05:50.623Z,5.57
2023-03-18T05:08:32.338Z,5.75
2023-03-18T05:11:15.082Z,5.70
2023-03-18T05:13:56.890Z,5.95
2023-03-18T05:16:42.719Z,5.90
2023-03-18T05:19:28.197Z,5.70
2023-03-18T05:22:15.394Z,5.50
2023-03-18T05:25:00.613Z,5.75
2023-03-18T05:27:47.666Z,5.35
2023-03-18T05:30:34.422Z,5.53
2023-03-18T05:33:22.709Z,5.55
2023-03-18T05:36:09.298Z,5.38
2023-03-18T05:38:54.561Z,6.03
2023-03-18T05:41:39.917Z,5.97
2023-03-18T05:44:25.883Z,5.47
2023-03-18T05:47:11.480Z,5.90
2023-03-18T05:49:56.839Z,6.18
2023-03-18T05:52:42.906Z,6.20
2023-03-18T05:55:28.497Z,5.75
2023-03-18T05:58:13.802Z,5.80
2023-03-18T06:01:00.151Z,6.07
2023-03-18T06:03:45.420Z,5.70
2023-03-18T06:06:30.721Z,5.78
2023-03-18T06:09:16.600Z,6.28
2023-03-18T06:12:02.191Z,5.50
2023-03-18T06:14:47.724Z,5.43
2023-03-18T06:17:34.016Z,5.32
2023-03-18T06:20:19.550Z,5.78
2023-03-18T06:23:05.382Z,6.13
2023-03-18T06:25:50.961Z,6.90
2023-03-18T06:28:36.176Z,6.30
2023-03-18T06:31:22.782Z,5.90
2023-03-18T06:34:08.025Z,5.65
2023-03-18T06:36:53.324Z,6.03
2023-03-18T06:39:40.770Z,5.80
2023-03-18T06:42:26.703Z,6.05
2023-03-18T06:45:13.229Z,6.25
2023-03-18T06:48:00.864Z,6.30
2023-03-18T06:50:46.374Z,5.53
2023-03-18T06:53:31.556Z,5.25
2023-03-18T06:56:16.632Z,5.30
2023-03-18T06:59:01.574Z,6.25
2023-03-18T07:01:47.131Z,5.93
2023-03-18T07:04:33.864Z,5.68
2023-03-18T07:07:19.571Z,5.82
2023-03-18T07:10:11.698Z,5.55
2023-03-18T07:12:57.852Z,6.25
2023-03-18T07:15:43.612Z,5.63
2023-03-18T07:18:29.170Z,5.30
2023-03-18T07:21:14.489Z,5.57
2023-03-18T07:23:59.775Z,5.25
2023-03-18T07:26:45.489Z,5.15
2023-03-18T07:29:30.755Z,6.10
2023-03-18T07:32:15.983Z,5.50
2023-03-18T07:35:02.989Z,5.05
2023-03-18T07:37:48.592Z,4.95
2023-03-18T07:40:34.213Z,5.38
2023-03-18T07:43:19.494Z,5.10
2023-03-18T07:46:05.778Z,4.88
2023-03-18T07:48:51.861Z,5.28
2023-03-18T07:51:37.394Z,4.80
2023-03-18T07:54:24.622Z,4.80
2023-03-18T07:57:10.544Z,5.47
2023-03-18T07:59:56.279Z,5.13
2023-03-18T08:02:42.231Z,5.40
2023-03-18T08:05:27.649Z,4.40
2023-03-18T08:08:12.766Z,5.60
2023-03-18T08:11:00.496Z,4.72
2023-03-18T08:13:45.866Z,4.90
2023-03-18T08:16:31.192Z,4.80
2023-03-18T08:19:16.770Z,4.85
2023-03-18T08:22:02.553Z,4.63
2023-03-18T08:24:48.340Z,5.55
2023-03-18T08:27:33.619Z,4.70
2023-03-18T08:30:19.421Z,5.63
2023-03-18T08:33:04.824Z,4.55
2023-03-18T08:35:50.259Z,4.75
2023-03-18T08:38:35.514Z,5.57
2023-03-18T08:41:20.836Z,5.28
2023-03-18T08:44:10.881Z,4.75
2023-03-18T08:46:55.950Z,5.47
2023-03-18T08:49:41.485Z,4.95
2023-03-18T08:52:27.010Z,4.65
2023-03-18T08:55:12.360Z,4.97
2023-03-18T08:57:58.672Z,5.00
2023-03-18T09:00:43.806Z,5.22
2023-03-18T09:03:30.316Z,5.10
2023-03-18T09:06:16.681Z,5.38
2023-03-18T09:09:01.948Z,5.93
2023-03-18T09:11:47.900Z,6.20
2023-03-18T09:14:33.137Z,5.80
2023-03-18T09:17:18.327Z,6.72
2023-03-18T09:20:05.249Z,6.38
2023-03-18T09:22:52.129Z,6.60
2023-03-18T09:25:37.241Z,6.25
2023-03-18T09:28:22.850Z,5.75
2023-03-18T09:31:08.378Z,5.95
2023-03-18T09:33:53.537Z,6.70
2023-03-18T09:36:38.826Z,6.75
2023-03-18T09:39:24.151Z,6.15
2023-03-18T09:42:32.671Z,6.65
2023-03-18T09:45:24.971Z,6.07
2023-03-18T09:48:32.310Z,6.43
2023-03-18T09:51:20.512Z,7.25
2023-03-18T09:54:33.272Z,6.82
2023-03-18T09:57:28.744Z,7.40
2023-03-18T10:00:26.005Z,7.70
2023-03-18T10:03:15.478Z,7.28
2023-03-18T10:06:22.067Z,8.05
2023-03-18T10:09:27.018Z,8.02
2023-03-18T10:12:35.718Z,8.35
2023-03-18T10:15:41.562Z,8.70
2023-03-18T10:18:33.803Z,7.80
2023-03-18T10:21:42.425Z,8.45
2023-03-18T10:24:44.422Z,8.95
2023-03-18T10:27:56.674Z,8.50
2023-03-18T10:31:14.514Z,9.18
2023-03-18T10:34:06.527Z,9.90
2023-03-18T10:37:13.390Z,9.57
2023-03-18T10:39:59.685Z,11.15
2023-03-18T10:42:45.882Z,9.25
2023-03-18T10:45:34.329Z,10.27
2023-03-18T10:48:35.097Z,10.07
2023-03-18T10:51:32.979Z,11.20
2023-03-18T10:54:23.302Z,10.75
2023-03-18T10:57:27.224Z,12.02
2023-03-18T11:00:28.459Z,11.90
2023-03-18T11:03:33.179Z,11.65
2023-03-18T11:06:35.971Z,11.50
2023-03-18T11:09:23.534Z,11.38
2023-03-18T11:12:24.280Z,11.45
2023-03-18T11:15:13.563Z,12.25
2023-03-18T11:18:02.546Z,12.02
2023-03-18T11:20:55.506Z,12.02
2023-03-18T11:24:10.443Z,12.07
2023-03-18T11:26:57.494Z,11.93
2023-03-18T11:29:54.308Z,11.00
2023-03-18T11:32:58.505Z,10.52
2023-03-18T11:35:50.140Z,11.20
2023-03-18T11:38:37.117Z,10.73
2023-03-18T11:41:30.905Z,9.88
2023-03-18T11:44:24.400Z,10.02
2023-03-18T11:47:18.763Z,10.80
2023-03-18T11:50:05.455Z,10.60
2023-03-18T11:52:55.453Z,10.05
2023-03-18T11:55:47.790Z,9.98
2023-03-18T11:58:52.834Z,10.35
2023-03-18T12:01:41.375Z,10.73
2023-03-18T12:04:33.900Z,10.55
2023-03-18T12:07:47.308Z,8.95
2023-03-18T12:10:41.020Z,9.73
2023-03-18T12:13:44.166Z,8.40
2023-03-18T12:16:44.930Z,8.75
2023-03-18T12:19:41.978Z,9.35
2023-03-18T12:22:33.265Z,9.27
2023-03-18T12:25:33.045Z,8.32
2023-03-18T12:28:31.250Z,8.00
2023-03-18T12:31:30.382Z,7.80
2023-03-18T12:34:55.114Z,8.52
2023-03-18T12:38:08.475Z,8.20
2023-03-18T12:41:06.728Z,7.68
2023-03-18T12:43:58.469Z,8.48
2023-03-18T12:46:50.694Z,7.93
2023-03-18T12:49:45.103Z,7.15
2023-03-18T12:52:43.822Z,6.55
2023-03-18T12:55:51.904Z,6.90
2023-03-18T12:58:42.902Z,7.30
2023-03-18T13:01:47.519Z,7.03
2023-03-18T13:04:36.428Z,7.32
2023-03-18T13:07:31.140Z,7.22
2023-03-18T13:10:24.236Z,7.18
2023-03-18T13:13:11.882Z,6.93
2023-03-18T13:15:57.977Z,6.88
2023-03-18T13:18:51.969Z,6.35
2023-03-18T13:21:44.072Z,6.60
2023-03-18T13:24:43.197Z,6.40
2023-03-18T13:27:52.829Z,6.40
2023-03-18T13:30:54.044Z,6.10
2023-03-18T13:34:11.974Z,6.97
2023-03-18T13:37:27.633Z,5.63
2023-03-18T13:40:19.193Z,4.53
2023-03-18T13:43:05.706Z,4.80
2023-03-18T13:45:53.623Z,4.53
2023-03-18T13:48:41.417Z,4.72
2023-03-18T13:51:29.490Z,4.18
2023-03-18T13:54:18.974Z,3.35
2023-03-18T13:57:30.371Z,3.63
2023-03-18T14:00:29.103Z,3.35
2023-03-18T14:03:23.051Z,3.38
2023-03-18T14:06:08.569Z,3.03
2023-03-18T14:08:54.393Z,3.08
2023-03-18T14:11:46.877Z,3.30
2023-03-18T14:14:40.525Z,3.15
2023-03-18T14:17:39.024Z,3.00
2023-03-18T14:20:39.820Z,3.22
2023-03-18T14:23:44.436Z,3.50
2023-03-18T14:26:31.499Z,2.95
2023-03-18T14:29:26.704Z,3.13
2023-03-18T14:32:38.707Z,3.22
2023-03-18T14:35:29.427Z,2.42
2023-03-18T14:38:24.894Z,1.83
2023-03-18T14:41:26.921Z,1.90
2023-03-18T14:44:42.650Z,2.50
2023-03-18T14:47:40.556Z,2.10
2023-03-18T14:50:47.150Z,1.67
2023-03-18T14:53:32.560Z,1.90
2023-03-18T14:56:21.161Z,2.53
2023-03-18T14:59:08.797Z,2.58
2023-03-18T15:01:55.401Z,2.42
2023-03-18T15:04:52.647Z,2.92
2023-03-18T15:07:41.302Z,3.28
2023-03-18T15:10:30.494Z,3.75
2023-03-18T15:13:21.957Z,3.83
2023-03-18T15:16:12.141Z,3.85
2023-03-18T15:18:57.596Z,3.92
2023-03-18T15:21:42.967Z,4.70
2023-03-18T15:24:28.306Z,5.00
2023-03-18T15:27:20.650Z,4.20
2023-03-18T15:30:10.859Z,4.63
2023-03-18T15:33:08.455Z,5.28
2023-03-18T15:35:55.862Z,4.55
2023-03-18T15:38:47.894Z,4.40
2023-03-18T15:41:33.159Z,4.78
2023-03-18T15:44:25.280Z,4.22
2023-03-18T15:47:20.248Z,5.82
2023-03-18T15:50:26.239Z,4.93
2023-03-18T15:53:26.734Z,4.32
2023-03-18T15:56:43.131Z,4.13
2023-03-18T15:59:31.155Z,4.72
2023-03-18T16:02:18.621Z,5.85
2023-03-18T16:05:14.712Z,4.72
2023-03-18T16:08:00.200Z,5.20
2023-03-18T16:10:46.729Z,5.40
2023-03-18T16:13:36.683Z,5.15
2023-03-18T16:19:32.738Z,5.40
2023-03-18T16:22:18.469Z,5.85
2023-03-18T16:25:04.184Z,5.25
2023-03-18T16:27:51.146Z,6.07
2023-03-18T16:30:40.033Z,5.25
2023-03-18T16:33:26.178Z,5.18
2023-03-18T16:36:22.508Z,6.57
2023-03-18T16:42:00.397Z,7.78
2023-03-18T16:44:45.625Z,9.52
2023-03-18T16:47:31.760Z,7.32
2023-03-18T16:50:22.452Z,10.45
2023-03-18T16:53:20.313Z,11.18
2023-03-18T16:56:08.446Z,11.57
2023-03-18T16:58:53.840Z,9.88
2023-03-18T17:01:38.986Z,10.73
2023-03-18T17:04:35.221Z,10.57
2023-03-18T17:07:20.412Z,9.57
2023-03-18T17:10:06.438Z,9.68
2023-03-18T17:13:05.940Z,8.45
2023-03-18T17:15:51.364Z,9.80
2023-03-18T17:18:36.634Z,9.73
2023-03-18T17:21:22.260Z,9.90
2023-03-18T17:24:08.191Z,10.75
2023-03-18T17:26:55.119Z,13.10
2023-03-18T17:29:41.102Z,9.52
2023-03-18T17:32:27.353Z,11.48
2023-03-18T17:35:21.125Z,11.82
2023-03-18T17:38:06.593Z,12.23
2023-03-18T17:40:52.947Z,11.40
2023-03-18T17:43:40.186Z,10.85
2023-03-18T17:46:25.243Z,10.73
2023-03-18T17:49:14.295Z,10.50
2023-03-18T17:52:00.103Z,11.25
2023-03-18T17:54:45.322Z,9.77
2023-03-18T17:57:32.192Z,8.75
2023-03-18T18:00:27.206Z,9.35
2023-03-18T18:03:22.828Z,9.82
2023-03-18T18:06:11.763Z,9.63
2023-03-18T18:09:02.241Z,8.60
2023-03-18T18:14:34.275Z,8.93
2023-03-18T18:17:19.495Z,8.70
2023-03-18T18:20:06.085Z,9.05
2023-03-18T18:22:54.807Z,9.93
2023-03-18T18:25:39.957Z,10.90
2023-03-18T18:28:39.340Z,10.57
2023-03-18T18:41:21.969Z,11.32
2023-03-18T18:44:08.009Z,11.63
2023-03-18T18:46:53.881Z,11.60
2023-03-18T18:49:40.883Z,11.35
2023-03-18T18:52:26.476Z,10.55
2023-03-18T18:55:11.931Z,9.82
2023-03-18T18:57:57.217Z,9.70
2023-03-18T19:00:42.739Z,9.68
2023-03-18T19:03:32.560Z,9.45
2023-03-18T19:06:27.924Z,8.70
2023-03-18T19:09:22.044Z,8.80
2023-03-18T19:12:15.945Z,9.02
2023-03-18T19:15:01.417Z,9.38
2023-03-18T19:17:47.919Z,9.07
2023-03-18T19:20:33.354Z,10.00
2023-03-18T19:27:24.916Z,9.10
2023-03-18T19:30:21.132Z,9.05
2023-03-18T19:33:16.985Z,8.63
2023-03-18T19:36:27.558Z,9.45
2023-03-18T19:39:17.872Z,10.68
2023-03-18T19:42:02.896Z,10.13
2023-03-18T19:44:48.719Z,10.52
2023-03-18T19:47:34.283Z,11.25
2023-03-18T19:50:21.590Z,11.93
2023-03-18T19:53:15.098Z,9.98
2023-03-18T19:56:00.568Z,14.10
2023-03-18T19:58:45.929Z,15.57
2023-03-18T20:01:31.614Z,15.88
2023-03-18T20:04:18.929Z,19.20
2023-03-18T20:07:06.420Z,23.92
2023-03-18T20:09:52.454Z,19.52
2023-03-18T20:12:43.223Z,19.92
2023-03-18T20:15:29.262Z,23.13
2023-03-18T20:18:17.294Z,22.50
2023-03-18T20:21:03.309Z,22.13
2023-03-18T20:23:49.877Z,19.90
2023-03-18T20:26:35.420Z,20.23
2023-03-18T20:29:23.985Z,18.55
2023-03-18T20:32:09.658Z,18.20
2023-03-18T20:34:55.163Z,20.63
2023-03-18T20:37:40.752Z,20.98
2023-03-18T20:40:30.566Z,22.88
2023-03-18T20:43:17.489Z,22.17
2023-03-18T20:46:04.147Z,22.02
2023-03-18T20:48:49.889Z,20.42
2023-03-18T20:51:38.360Z,20.27
2023-03-18T20:54:29.989Z,18.55
2023-03-18T20:57:14.941Z,17.50
2023-03-18T21:00:00.360Z,17.38
2023-03-18T21:02:49.820Z,21.38
2023-03-18T21:05:35.296Z,19.08
2023-03-18T21:08:20.507Z,18.27
2023-03-18T21:11:06.534Z,18.98
2023-03-18T21:13:52.100Z,20.00
2023-03-18T21:16:38.028Z,19.38
2023-03-18T21:19:23.229Z,19.88
2023-03-18T21:22:11.141Z,20.00
2023-03-18T21:24:57.814Z,21.85
2023-03-18T21:27:43.265Z,20.42
2023-03-18T21:30:28.892Z,22.50
2023-03-18T21:33:27.788Z,20.88
2023-03-18T21:36:13.167Z,22.33
2023-03-18T21:38:58.130Z,23.75
2023-03-18T21:41:43.880Z,21.63
2023-03-18T21:44:29.342Z,20.15
2023-03-18T21:47:16.945Z,19.17
2023-03-18T21:50:04.412Z,20.10
2023-03-18T21:52:50.188Z,19.92
2023-03-18T21:55:35.500Z,19.50
2023-03-18T21:58:25.663Z,19.10
2023-03-18T22:01:19.400Z,18.58
2023-03-18T22:04:04.510Z,17.80
2023-03-18T22:06:49.664Z,17.52
2023-03-18T22:09:34.992Z,18.83
2023-03-18T22:12:31.070Z,19.77
2023-03-18T22:15:37.841Z,18.90
2023-03-18T22:18:24.166Z,19.45
2023-03-18T22:21:25.243Z,19.10
2023-03-18T22:24:14.038Z,17.80
2023-03-18T22:26:59.553Z,19.10
2023-03-18T22:29:44.898Z,19.15
2023-03-18T22:32:43.433Z,18.27
2023-03-18T22:35:30.010Z,18.70
2023-03-18T22:38:20.533Z,16.40
2023-03-18T22:41:06.231Z,17.35
2023-03-18T22:43:51.778Z,19.40
2023-03-18T22:46:36.906Z,21.50
2023-03-18T22:49:21.970Z,20.38
2023-03-18T22:52:11.502Z,18.08
2023-03-18T22:55:02.291Z,20.98
2023-03-18T22:57:48.368Z,22.48
2023-03-18T23:00:39.491Z,23.02
2023-03-18T23:03:36.851Z,21.05
2023-03-18T23:06:27.095Z,18.83
2023-03-18T23:09:12.898Z,21.05
2023-03-18T23:11:58.328Z,20.95
2023-03-18T23:14:43.583Z,19.60
2023-03-18T23:17:28.773Z,20.65
2023-03-18T23:20:16.757Z,19.63
2023-03-18T23:23:02.205Z,18.45
2023-03-18T23:25:48.882Z,21.15
2023-03-18T23:28:43.659Z,20.23
2023-03-18T23:31:29.830Z,20.50
2023-03-18T23:34:15.481Z,26.33
2023-03-18T23:37:01.311Z,31.20
2023-03-18T23:39:46.618Z,26.77
2023-03-18T23:42:32.308Z,24.52
2023-03-18T23:45:17.783Z,26.02
2023-03-18T23:48:04.081Z,24.65
2023-03-18T23:50:49.595Z,22.77
2023-03-18T23:53:34.729Z,20.40
2023-03-18T23:56:20.569Z,22.95
2023-03-18T23:59:06.275Z,22.55
